sensor_id;sensor_type;location;lat;lon;timestamp;pressure;altitude;pressure_sealevel;temperature;humidity
61757;BME280;57225;61.460;24.060;2023-05-13T00:01:55;101187.19;;;10.61;65.85
61757;BME280;57225;61.460;24.060;2023-05-13T00:04:40;101181.91;;;10.56;66.06
61757;BME280;57225;61.460;24.060;2023-05-13T00:07:25;101161.06;;;10.43;65.76
61757;BME280;57225;61.460;24.060;2023-05-13T00:10:09;101188.59;;;10.48;66.76
61757;BME280;57225;61.460;24.060;2023-05-13T00:12:54;101187.03;;;10.51;66.31
61757;BME280;57225;61.460;24.060;2023-05-13T00:15:39;101178.94;;;10.42;66.32
61757;BME280;57225;61.460;24.060;2023-05-13T00:18:23;101186.13;;;10.43;66.98
61757;BME280;57225;61.460;24.060;2023-05-13T00:21:08;101195.22;;;10.40;66.52
61757;BME280;57225;61.460;24.060;2023-05-13T00:23:53;101190.00;;;10.35;67.06
61757;BME280;57225;61.460;24.060;2023-05-13T00:26:37;101183.53;;;10.31;66.75
61757;BME280;57225;61.460;24.060;2023-05-13T00:29:24;101191.91;;;10.31;67.15
61757;BME280;57225;61.460;24.060;2023-05-13T00:32:08;101162.44;;;10.07;66.95
61757;BME280;57225;61.460;24.060;2023-05-13T00:34:53;101192.22;;;10.26;67.15
61757;BME280;57225;61.460;24.060;2023-05-13T00:37:37;101182.59;;;10.20;66.93
61757;BME280;57225;61.460;24.060;2023-05-13T00:40:23;101193.00;;;10.23;67.14
61757;BME280;57225;61.460;24.060;2023-05-13T00:43:07;101178.44;;;10.10;67.28
61757;BME280;57225;61.460;24.060;2023-05-13T00:45:51;101189.31;;;10.19;67.15
61757;BME280;57225;61.460;24.060;2023-05-13T00:48:37;101181.16;;;10.06;67.29
61757;BME280;57225;61.460;24.060;2023-05-13T00:51:21;101185.09;;;10.05;67.59
61757;BME280;57225;61.460;24.060;2023-05-13T00:54:06;101204.00;;;10.16;67.09
61757;BME280;57225;61.460;24.060;2023-05-13T00:56:51;101202.69;;;10.09;67.29
61757;BME280;57225;61.460;24.060;2023-05-13T00:59:54;101205.47;;;10.09;67.62
61757;BME280;57225;61.460;24.060;2023-05-13T01:03:01;101207.03;;;10.07;67.64
61757;BME280;57225;61.460;24.060;2023-05-13T01:05:58;101211.88;;;10.10;68.34
61757;BME280;57225;61.460;24.060;2023-05-13T01:08:57;101212.53;;;10.03;68.21
61757;BME280;57225;61.460;24.060;2023-05-13T01:11:48;101200.31;;;9.85;68.63
61757;BME280;57225;61.460;24.060;2023-05-13T01:14:51;101202.53;;;9.76;68.58
61757;BME280;57225;61.460;24.060;2023-05-13T01:18:05;101197.75;;;9.77;68.71
61757;BME280;57225;61.460;24.060;2023-05-13T01:20:50;101206.78;;;9.70;68.13
61757;BME280;57225;61.460;24.060;2023-05-13T01:23:40;101222.78;;;9.73;68.01
61757;BME280;57225;61.460;24.060;2023-05-13T01:26:25;101218.41;;;9.76;68.60
61757;BME280;57225;61.460;24.060;2023-05-13T01:29:09;101221.56;;;9.74;68.07
61757;BME280;57225;61.460;24.060;2023-05-13T01:31:55;101221.16;;;9.72;68.99
61757;BME280;57225;61.460;24.060;2023-05-13T01:34:41;101226.72;;;9.72;69.05
61757;BME280;57225;61.460;24.060;2023-05-13T01:37:27;101206.97;;;9.58;69.07
61757;BME280;57225;61.460;24.060;2023-05-13T01:40:12;101227.75;;;9.64;69.28
61757;BME280;57225;61.460;24.060;2023-05-13T01:42:57;101229.44;;;9.68;69.29
61757;BME280;57225;61.460;24.060;2023-05-13T01:45:41;101225.41;;;9.66;69.18
61757;BME280;57225;61.460;24.060;2023-05-13T01:48:26;101227.75;;;9.64;69.25
61757;BME280;57225;61.460;24.060;2023-05-13T01:51:11;101227.75;;;9.64;69.58
61757;BME280;57225;61.460;24.060;2023-05-13T01:53:56;101226.91;;;9.60;69.74
61757;BME280;57225;61.460;24.060;2023-05-13T01:56:40;101226.09;;;9.59;69.62
61757;BME280;57225;61.460;24.060;2023-05-13T01:59:24;101209.16;;;9.49;69.86
61757;BME280;57225;61.460;24.060;2023-05-13T02:02:09;101226.91;;;9.60;69.69
61757;BME280;57225;61.460;24.060;2023-05-13T02:04:53;101219.72;;;9.59;69.42
61757;BME280;57225;61.460;24.060;2023-05-13T02:07:38;101219.72;;;9.59;69.59
61757;BME280;57225;61.460;24.060;2023-05-13T02:10:22;101228.50;;;9.61;69.50
61757;BME280;57225;61.460;24.060;2023-05-13T02:13:07;101215.91;;;9.67;69.80
61757;BME280;57225;61.460;24.060;2023-05-13T02:15:53;101216.19;;;9.62;70.10
61757;BME280;57225;61.460;24.060;2023-05-13T02:18:37;101201.41;;;9.58;70.60
61757;BME280;57225;61.460;24.060;2023-05-13T02:21:22;101216.75;;;9.71;70.47
61757;BME280;57225;61.460;24.060;2023-05-13T02:24:06;101216.00;;;9.74;70.69
61757;BME280;57225;61.460;24.060;2023-05-13T02:26:50;101219.19;;;9.73;70.56
61757;BME280;57225;61.460;24.060;2023-05-13T02:29:36;101228.34;;;9.73;70.38
61757;BME280;57225;61.460;24.060;2023-05-13T02:32:20;101220.78;;;9.74;70.61
61757;BME280;57225;61.460;24.060;2023-05-13T02:35:05;101221.56;;;9.74;71.09
61757;BME280;57225;61.460;24.060;2023-05-13T02:37:50;101220.78;;;9.74;70.97
61757;BME280;57225;61.460;24.060;2023-05-13T02:40:34;101224.13;;;9.60;72.60
61757;BME280;57225;61.460;24.060;2023-05-13T02:43:19;101220.94;;;9.19;74.65
61757;BME280;57225;61.460;24.060;2023-05-13T02:46:03;101227.00;;;9.25;73.72
61757;BME280;57225;61.460;24.060;2023-05-13T02:48:48;101218.34;;;9.30;73.39
61757;BME280;57225;61.460;24.060;2023-05-13T02:51:32;101236.22;;;9.48;72.31
61757;BME280;57225;61.460;24.060;2023-05-13T02:54:16;101228.56;;;9.64;72.93
61757;BME280;57225;61.460;24.060;2023-05-13T02:57:02;101229.50;;;9.72;73.25
61757;BME280;57225;61.460;24.060;2023-05-13T03:00:05;101227.03;;;9.67;72.64
61757;BME280;57225;61.460;24.060;2023-05-13T03:02:50;101234.00;;;9.57;74.56
61757;BME280;57225;61.460;24.060;2023-05-13T03:05:34;101233.94;;;9.54;73.00
61757;BME280;57225;61.460;24.060;2023-05-13T03:08:19;101232.69;;;9.51;74.44
61757;BME280;57225;61.460;24.060;2023-05-13T03:11:03;101235.50;;;9.74;72.64
61757;BME280;57225;61.460;24.060;2023-05-13T03:13:48;101236.63;;;9.92;72.25
61757;BME280;57225;61.460;24.060;2023-05-13T03:16:33;101203.94;;;9.89;71.33
61757;BME280;57225;61.460;24.060;2023-05-13T03:19:17;101230.75;;;9.97;71.94
61757;BME280;57225;61.460;24.060;2023-05-13T03:22:03;101246.09;;;10.11;72.14
61757;BME280;57225;61.460;24.060;2023-05-13T03:24:47;101241.25;;;10.07;71.97
61757;BME280;57225;61.460;24.060;2023-05-13T03:27:32;101249.69;;;10.34;71.29
61757;BME280;57225;61.460;24.060;2023-05-13T03:30:16;101236.31;;;10.43;70.44
61757;BME280;57225;61.460;24.060;2023-05-13T03:33:01;101251.09;;;10.47;71.94
61757;BME280;57225;61.460;24.060;2023-05-13T03:35:45;101220.31;;;10.40;70.68
61757;BME280;57225;61.460;24.060;2023-05-13T03:38:32;101259.88;;;10.75;69.89
61757;BME280;57225;61.460;24.060;2023-05-13T03:41:16;101236.84;;;10.82;68.82
61757;BME280;57225;61.460;24.060;2023-05-13T03:44:01;101247.94;;;11.05;68.62
61757;BME280;57225;61.460;24.060;2023-05-13T03:46:45;101242.25;;;10.98;68.97
61757;BME280;57225;61.460;24.060;2023-05-13T03:49:29;101240.22;;;10.95;68.36
61757;BME280;57225;61.460;24.060;2023-05-13T03:52:14;101245.47;;;11.00;68.73
61757;BME280;57225;61.460;24.060;2023-05-13T03:54:59;101253.28;;;11.17;68.71
61757;BME280;57225;61.460;24.060;2023-05-13T03:57:47;101239.22;;;11.10;68.73
61757;BME280;57225;61.460;24.060;2023-05-13T04:00:32;101258.22;;;11.31;68.36
61757;BME280;57225;61.460;24.060;2023-05-13T04:03:16;101250.88;;;11.52;67.99
61757;BME280;57225;61.460;24.060;2023-05-13T04:06:01;101244.13;;;11.87;66.53
61757;BME280;57225;61.460;24.060;2023-05-13T04:08:45;101248.91;;;11.90;66.33
61757;BME280;57225;61.460;24.060;2023-05-13T04:11:31;101256.97;;;11.95;66.32
61757;BME280;57225;61.460;24.060;2023-05-13T04:14:15;101245.31;;;11.89;66.32
61757;BME280;57225;61.460;24.060;2023-05-13T04:17:01;101251.84;;;12.04;66.24
61757;BME280;57225;61.460;24.060;2023-05-13T04:19:45;101249.09;;;12.07;65.69
61757;BME280;57225;61.460;24.060;2023-05-13T04:22:30;101240.38;;;12.16;65.52
61757;BME280;57225;61.460;24.060;2023-05-13T04:25:14;101255.72;;;12.36;65.17
61757;BME280;57225;61.460;24.060;2023-05-13T04:28:00;101249.38;;;12.43;65.06
61757;BME280;57225;61.460;24.060;2023-05-13T04:30:44;101241.06;;;12.54;64.54
61757;BME280;57225;61.460;24.060;2023-05-13T04:33:29;101253.59;;;12.74;63.57
61757;BME280;57225;61.460;24.060;2023-05-13T04:36:13;101255.63;;;12.77;63.77
61757;BME280;57225;61.460;24.060;2023-05-13T04:38:58;101225.19;;;12.72;63.18
61757;BME280;57225;61.460;24.060;2023-05-13T04:41:42;101259.75;;;13.04;62.47
61757;BME280;57225;61.460;24.060;2023-05-13T04:44:27;101256.88;;;13.84;60.69
61757;BME280;57225;61.460;24.060;2023-05-13T04:47:11;101239.97;;;15.88;54.10
61757;BME280;57225;61.460;24.060;2023-05-13T04:49:55;101265.38;;;18.56;46.42
61757;BME280;57225;61.460;24.060;2023-05-13T04:52:40;101270.78;;;20.73;42.02
61757;BME280;57225;61.460;24.060;2023-05-13T04:55:26;101276.00;;;19.54;42.75
61757;BME280;57225;61.460;24.060;2023-05-13T04:58:10;101255.94;;;21.26;39.46
61757;BME280;57225;61.460;24.060;2023-05-13T05:00:54;101268.50;;;20.97;39.20
61757;BME280;57225;61.460;24.060;2023-05-13T05:03:40;101275.50;;;22.04;37.94
61757;BME280;57225;61.460;24.060;2023-05-13T05:06:25;101275.41;;;21.53;37.96
61757;BME280;57225;61.460;24.060;2023-05-13T05:09:09;101268.75;;;21.02;39.34
61757;BME280;57225;61.460;24.060;2023-05-13T05:11:53;101285.53;;;21.25;38.91
61757;BME280;57225;61.460;24.060;2023-05-13T05:14:38;101285.75;;;21.02;38.74
61757;BME280;57225;61.460;24.060;2023-05-13T05:17:22;101263.19;;;19.49;41.00
61757;BME280;57225;61.460;24.060;2023-05-13T05:20:07;101281.97;;;18.77;43.15
61757;BME280;57225;61.460;24.060;2023-05-13T05:22:52;101260.63;;;18.96;43.34
61757;BME280;57225;61.460;24.060;2023-05-13T05:25:36;101292.81;;;18.78;43.12
61757;BME280;57225;61.460;24.060;2023-05-13T05:28:21;101290.50;;;18.23;43.60
61757;BME280;57225;61.460;24.060;2023-05-13T05:31:07;101250.56;;;17.71;45.60
61757;BME280;57225;61.460;24.060;2023-05-13T05:33:53;101296.31;;;18.13;45.05
61757;BME280;57225;61.460;24.060;2023-05-13T05:36:38;101296.47;;;17.72;46.60
61757;BME280;57225;61.460;24.060;2023-05-13T05:39:23;101279.16;;;17.73;45.54
61757;BME280;57225;61.460;24.060;2023-05-13T05:42:07;101297.28;;;17.72;45.99
61757;BME280;57225;61.460;24.060;2023-05-13T05:44:52;101310.19;;;17.02;47.74
61757;BME280;57225;61.460;24.060;2023-05-13T05:47:36;101302.84;;;17.45;47.95
61757;BME280;57225;61.460;24.060;2023-05-13T05:50:21;101292.53;;;17.65;47.35
61757;BME280;57225;61.460;24.060;2023-05-13T05:53:06;101293.53;;;17.48;48.85
61757;BME280;57225;61.460;24.060;2023-05-13T05:55:50;101312.50;;;17.78;46.36
61757;BME280;57225;61.460;24.060;2023-05-13T05:58:35;101296.78;;;17.47;46.83
61757;BME280;57225;61.460;24.060;2023-05-13T06:01:20;101300.25;;;17.92;46.97
61757;BME280;57225;61.460;24.060;2023-05-13T06:04:04;101281.66;;;17.94;46.55
61757;BME280;57225;61.460;24.060;2023-05-13T06:06:49;101275.34;;;17.87;45.91
61757;BME280;57225;61.460;24.060;2023-05-13T06:09:33;101299.75;;;18.24;46.53
61757;BME280;57225;61.460;24.060;2023-05-13T06:12:18;101289.50;;;18.60;46.39
61757;BME280;57225;61.460;24.060;2023-05-13T06:15:03;101300.06;;;18.79;45.66
61757;BME280;57225;61.460;24.060;2023-05-13T06:17:49;101287.16;;;19.02;45.68
61757;BME280;57225;61.460;24.060;2023-05-13T06:20:33;101285.69;;;18.94;45.13
61757;BME280;57225;61.460;24.060;2023-05-13T06:23:41;101305.91;;;18.42;46.38
61757;BME280;57225;61.460;24.060;2023-05-13T06:26:26;101303.47;;;18.91;47.47
61757;BME280;57225;61.460;24.060;2023-05-13T06:29:10;101304.91;;;19.42;44.59
61757;BME280;57225;61.460;24.060;2023-05-13T06:31:55;101307.47;;;19.76;46.52
61757;BME280;57225;61.460;24.060;2023-05-13T06:34:41;101299.22;;;20.01;43.69
61757;BME280;57225;61.460;24.060;2023-05-13T06:37:28;101308.63;;;20.14;43.91
61757;BME280;57225;61.460;24.060;2023-05-13T06:40:13;101309.63;;;19.88;43.18
61757;BME280;57225;61.460;24.060;2023-05-13T06:42:57;101305.03;;;19.94;42.73
61757;BME280;57225;61.460;24.060;2023-05-13T06:45:43;101303.22;;;19.05;42.34
61757;BME280;57225;61.460;24.060;2023-05-13T06:48:28;101321.19;;;19.57;44.65
61757;BME280;57225;61.460;24.060;2023-05-13T06:51:13;101321.75;;;19.88;43.40
61757;BME280;57225;61.460;24.060;2023-05-13T06:53:58;101304.88;;;20.01;43.09
61757;BME280;57225;61.460;24.060;2023-05-13T06:56:42;101313.63;;;20.42;41.24
61757;BME280;57225;61.460;24.060;2023-05-13T06:59:27;101325.13;;;20.52;41.61
61757;BME280;57225;61.460;24.060;2023-05-13T07:02:13;101321.59;;;20.64;41.67
61757;BME280;57225;61.460;24.060;2023-05-13T07:04:57;101320.25;;;20.84;41.52
61757;BME280;57225;61.460;24.060;2023-05-13T07:07:43;101313.59;;;20.91;39.87
61757;BME280;57225;61.460;24.060;2023-05-13T07:10:30;101318.25;;;21.14;41.03
61757;BME280;57225;61.460;24.060;2023-05-13T07:13:15;101320.81;;;21.08;39.54
61757;BME280;57225;61.460;24.060;2023-05-13T07:16:00;101325.44;;;21.02;40.05
61757;BME280;57225;61.460;24.060;2023-05-13T07:18:45;101329.31;;;21.24;41.12
61757;BME280;57225;61.460;24.060;2023-05-13T07:21:30;101294.06;;;21.38;39.64
61757;BME280;57225;61.460;24.060;2023-05-13T07:24:14;101313.00;;;21.70;37.87
61757;BME280;57225;61.460;24.060;2023-05-13T07:26:59;101312.78;;;21.64;38.52
61757;BME280;57225;61.460;24.060;2023-05-13T07:29:44;101324.44;;;21.95;38.21
61757;BME280;57225;61.460;24.060;2023-05-13T07:32:29;101323.94;;;21.84;38.91
61757;BME280;57225;61.460;24.060;2023-05-13T07:35:14;101326.63;;;21.75;38.24
61757;BME280;57225;61.460;24.060;2023-05-13T07:37:59;101319.19;;;21.94;39.80
61757;BME280;57225;61.460;24.060;2023-05-13T07:40:44;101319.91;;;22.11;38.04
61757;BME280;57225;61.460;24.060;2023-05-13T07:43:28;101325.81;;;22.16;39.46
61757;BME280;57225;61.460;24.060;2023-05-13T07:46:14;101309.66;;;22.51;38.74
61757;BME280;57225;61.460;24.060;2023-05-13T07:48:58;101306.53;;;22.83;38.62
61757;BME280;57225;61.460;24.060;2023-05-13T07:51:43;101321.13;;;22.73;36.30
61757;BME280;57225;61.460;24.060;2023-05-13T07:54:27;101309.19;;;22.53;36.25
61757;BME280;57225;61.460;24.060;2023-05-13T07:57:12;101312.31;;;21.66;36.81
61757;BME280;57225;61.460;24.060;2023-05-13T07:59:56;101313.72;;;21.74;39.41
61757;BME280;57225;61.460;24.060;2023-05-13T08:02:41;101323.09;;;22.13;36.95
61757;BME280;57225;61.460;24.060;2023-05-13T08:05:27;101313.56;;;22.32;37.32
61757;BME280;57225;61.460;24.060;2023-05-13T08:08:11;101305.13;;;22.41;36.83
61757;BME280;57225;61.460;24.060;2023-05-13T08:10:56;101311.25;;;22.01;36.00
61757;BME280;57225;61.460;24.060;2023-05-13T08:13:40;101327.63;;;22.23;37.14
61757;BME280;57225;61.460;24.060;2023-05-13T08:16:25;101296.16;;;22.42;37.82
61757;BME280;57225;61.460;24.060;2023-05-13T08:19:09;101319.91;;;22.49;35.59
61757;BME280;57225;61.460;24.060;2023-05-13T08:21:54;101326.13;;;22.81;37.01
61757;BME280;57225;61.460;24.060;2023-05-13T08:24:38;101318.00;;;23.27;35.49
61757;BME280;57225;61.460;24.060;2023-05-13T08:27:24;101320.38;;;23.07;34.53
61757;BME280;57225;61.460;24.060;2023-05-13T08:30:11;101319.28;;;23.26;36.92
61757;BME280;57225;61.460;24.060;2023-05-13T08:32:55;101319.19;;;23.17;37.25
61757;BME280;57225;61.460;24.060;2023-05-13T08:35:40;101305.50;;;23.46;35.17
61757;BME280;57225;61.460;24.060;2023-05-13T08:38:26;101314.59;;;23.54;34.33
61757;BME280;57225;61.460;24.060;2023-05-13T08:41:15;101295.97;;;23.40;36.99
61757;BME280;57225;61.460;24.060;2023-05-13T08:44:21;101284.75;;;22.80;35.13
61757;BME280;57225;61.460;24.060;2023-05-13T08:50:12;101298.88;;;23.27;34.30
61757;BME280;57225;61.460;24.060;2023-05-13T08:52:57;101311.28;;;23.55;36.45
61757;BME280;57225;61.460;24.060;2023-05-13T08:55:46;101308.22;;;23.72;35.45
61757;BME280;57225;61.460;24.060;2023-05-13T08:58:32;101320.38;;;23.94;34.30
61757;BME280;57225;61.460;24.060;2023-05-13T09:01:16;101323.06;;;24.19;33.63
61757;BME280;57225;61.460;24.060;2023-05-13T09:04:05;101314.59;;;23.76;33.70
61757;BME280;57225;61.460;24.060;2023-05-13T09:06:52;101280.44;;;23.54;34.06
61757;BME280;57225;61.460;24.060;2023-05-13T09:09:37;101321.53;;;24.27;34.01
61757;BME280;57225;61.460;24.060;2023-05-13T09:12:47;101311.56;;;24.41;34.22
61757;BME280;57225;61.460;24.060;2023-05-13T09:15:33;101314.38;;;24.81;33.37
61757;BME280;57225;61.460;24.060;2023-05-13T09:18:18;101319.13;;;24.75;33.00
61757;BME280;57225;61.460;24.060;2023-05-13T09:21:22;101309.84;;;25.20;33.10
61757;BME280;57225;61.460;24.060;2023-05-13T09:24:12;101310.31;;;25.64;33.48
61757;BME280;57225;61.460;24.060;2023-05-13T09:27:01;101280.63;;;25.52;32.39
61757;BME280;57225;61.460;24.060;2023-05-13T09:29:46;101306.66;;;25.63;31.81
61757;BME280;57225;61.460;24.060;2023-05-13T09:32:43;101303.63;;;25.49;32.00
61757;BME280;57225;61.460;24.060;2023-05-13T09:35:30;101297.63;;;25.65;32.44
61757;BME280;57225;61.460;24.060;2023-05-13T09:38:19;101303.00;;;25.63;32.34
61757;BME280;57225;61.460;24.060;2023-05-13T09:41:04;101305.63;;;25.94;32.76
61757;BME280;57225;61.460;24.060;2023-05-13T09:43:48;101298.88;;;25.46;33.04
61757;BME280;57225;61.460;24.060;2023-05-13T09:46:33;101301.75;;;25.37;32.43
61757;BME280;57225;61.460;24.060;2023-05-13T09:49:17;101301.59;;;25.40;32.25
61757;BME280;57225;61.460;24.060;2023-05-13T09:52:05;101304.09;;;25.56;32.88
61757;BME280;57225;61.460;24.060;2023-05-13T09:54:55;101291.41;;;25.76;32.71
61757;BME280;57225;61.460;24.060;2023-05-13T09:57:40;101283.47;;;26.13;31.85
61757;BME280;57225;61.460;24.060;2023-05-13T10:00:25;101295.56;;;26.17;31.15
61757;BME280;57225;61.460;24.060;2023-05-13T10:03:09;101290.97;;;25.59;30.87
61757;BME280;57225;61.460;24.060;2023-05-13T10:05:55;101288.13;;;25.59;30.76
61757;BME280;57225;61.460;24.060;2023-05-13T10:08:42;101285.53;;;25.61;31.73
61757;BME280;57225;61.460;24.060;2023-05-13T10:11:31;101289.94;;;25.80;30.48
61757;BME280;57225;61.460;24.060;2023-05-13T10:14:16;101281.31;;;23.63;34.19
61757;BME280;57225;61.460;24.060;2023-05-13T10:17:01;101279.16;;;24.17;33.47
61757;BME280;57225;61.460;24.060;2023-05-13T10:19:48;101285.22;;;24.77;32.36
61757;BME280;57225;61.460;24.060;2023-05-13T10:22:33;101280.47;;;24.74;33.13
61757;BME280;57225;61.460;24.060;2023-05-13T10:25:17;101278.00;;;24.36;32.28
61757;BME280;57225;61.460;24.060;2023-05-13T10:28:04;101270.50;;;24.78;32.73
61757;BME280;57225;61.460;24.060;2023-05-13T10:30:50;101269.06;;;24.74;33.58
61757;BME280;57225;61.460;24.060;2023-05-13T10:33:34;101263.31;;;25.56;30.78
61757;BME280;57225;61.460;24.060;2023-05-13T10:42:43;101257.03;;;26.03;30.75
61757;BME280;57225;61.460;24.060;2023-05-13T10:45:33;101256.72;;;26.58;31.39
61757;BME280;57225;61.460;24.060;2023-05-13T10:48:18;101248.94;;;26.82;30.36
61757;BME280;57225;61.460;24.060;2023-05-13T10:51:03;101255.72;;;25.71;30.40
61757;BME280;57225;61.460;24.060;2023-05-13T10:53:52;101251.69;;;26.20;31.94
61757;BME280;57225;61.460;24.060;2023-05-13T10:56:36;101239.81;;;26.69;31.45
61757;BME280;57225;61.460;24.060;2023-05-13T10:59:21;101244.50;;;27.19;29.71
61757;BME280;57225;61.460;24.060;2023-05-13T11:02:25;101251.75;;;27.74;29.45
61757;BME280;57225;61.460;24.060;2023-05-13T11:05:21;101245.91;;;27.97;28.96
61757;BME280;57225;61.460;24.060;2023-05-13T11:08:05;101241.28;;;27.71;28.90
61757;BME280;57225;61.460;24.060;2023-05-13T11:10:53;101250.13;;;28.02;28.98
61757;BME280;57225;61.460;24.060;2023-05-13T11:13:38;101236.34;;;26.65;29.24
61757;BME280;57225;61.460;24.060;2023-05-13T11:16:22;101238.84;;;26.48;29.83
61757;BME280;57225;61.460;24.060;2023-05-13T11:19:27;101242.72;;;27.22;30.50
61757;BME280;57225;61.460;24.060;2023-05-13T11:22:14;101245.72;;;27.72;29.62
61757;BME280;57225;61.460;24.060;2023-05-13T11:25:07;101244.94;;;27.86;30.05
61757;BME280;57225;61.460;24.060;2023-05-13T11:27:54;101248.88;;;27.88;29.30
61757;BME280;57225;61.460;24.060;2023-05-13T11:30:38;101240.84;;;28.07;29.45
61757;BME280;57225;61.460;24.060;2023-05-13T11:33:23;101225.00;;;28.26;28.14
61757;BME280;57225;61.460;24.060;2023-05-13T11:36:31;101233.38;;;28.30;27.13
61757;BME280;57225;61.460;24.060;2023-05-13T11:39:18;101231.25;;;27.95;28.49
61757;BME280;57225;61.460;24.060;2023-05-13T11:42:08;101228.91;;;27.94;28.16
61757;BME280;57225;61.460;24.060;2023-05-13T11:44:52;101237.28;;;27.97;28.04
61757;BME280;57225;61.460;24.060;2023-05-13T11:47:37;101226.31;;;27.96;28.30
61757;BME280;57225;61.460;24.060;2023-05-13T11:50:24;101220.22;;;27.30;29.51
61757;BME280;57225;61.460;24.060;2023-05-13T11:53:10;101230.91;;;27.58;29.59
61757;BME280;57225;61.460;24.060;2023-05-13T11:55:55;101231.22;;;28.25;29.05
61757;BME280;57225;61.460;24.060;2023-05-13T11:58:51;101222.09;;;28.82;28.18
61757;BME280;57225;61.460;24.060;2023-05-13T12:01:36;101220.84;;;28.48;28.11
61757;BME280;57225;61.460;24.060;2023-05-13T12:04:26;101219.34;;;28.52;28.66
61757;BME280;57225;61.460;24.060;2023-05-13T12:07:11;101218.84;;;28.94;27.43
61757;BME280;57225;61.460;24.060;2023-05-13T12:09:57;101221.69;;;28.33;28.09
61757;BME280;57225;61.460;24.060;2023-05-13T12:12:43;101203.75;;;28.59;26.27
61757;BME280;57225;61.460;24.060;2023-05-13T12:15:29;101207.19;;;28.22;27.33
61757;BME280;57225;61.460;24.060;2023-05-13T12:18:14;101219.25;;;28.26;27.74
61757;BME280;57225;61.460;24.060;2023-05-13T12:21:12;101221.03;;;27.59;28.21
61757;BME280;57225;61.460;24.060;2023-05-13T12:23:57;101206.41;;;27.28;28.28
61757;BME280;57225;61.460;24.060;2023-05-13T12:26:42;101221.19;;;28.00;28.78
61757;BME280;57225;61.460;24.060;2023-05-13T12:29:26;101217.25;;;27.83;26.75
61757;BME280;57225;61.460;24.060;2023-05-13T12:32:15;101216.44;;;27.97;26.96
61757;BME280;57225;61.460;24.060;2023-05-13T12:35:00;101215.44;;;28.00;27.25
61757;BME280;57225;61.460;24.060;2023-05-13T12:38:06;101217.53;;;28.34;26.72
61757;BME280;57225;61.460;24.060;2023-05-13T12:40:51;101200.91;;;28.79;27.60
61757;BME280;57225;61.460;24.060;2023-05-13T12:43:36;101213.84;;;28.89;27.18
61757;BME280;57225;61.460;24.060;2023-05-13T12:46:21;101209.13;;;28.71;27.07
61757;BME280;57225;61.460;24.060;2023-05-13T12:49:08;101210.25;;;28.94;27.11
61757;BME280;57225;61.460;24.060;2023-05-13T12:51:52;101199.75;;;29.37;26.07
61757;BME280;57225;61.460;24.060;2023-05-13T12:54:38;101200.06;;;29.45;26.24
61757;BME280;57225;61.460;24.060;2023-05-13T12:57:23;101193.53;;;29.18;25.38
61757;BME280;57225;61.460;24.060;2023-05-13T13:00:09;101200.63;;;29.49;26.65
61757;BME280;57225;61.460;24.060;2023-05-13T13:02:54;101208.25;;;29.52;25.08
61757;BME280;57225;61.460;24.060;2023-05-13T13:05:39;101183.72;;;29.31;24.89
61757;BME280;57225;61.460;24.060;2023-05-13T13:08:23;101160.09;;;28.49;25.71
61757;BME280;57225;61.460;24.060;2023-05-13T13:11:08;101195.75;;;27.43;27.36
61757;BME280;57225;61.460;24.060;2023-05-13T13:13:52;101182.00;;;26.17;29.40
61757;BME280;57225;61.460;24.060;2023-05-13T13:16:37;101171.19;;;25.88;29.20
61757;BME280;57225;61.460;24.060;2023-05-13T13:19:21;101184.78;;;24.82;30.84
61757;BME280;57225;61.460;24.060;2023-05-13T13:22:06;101194.94;;;24.07;32.88
61757;BME280;57225;61.460;24.060;2023-05-13T13:24:50;101176.88;;;23.51;32.95
61757;BME280;57225;61.460;24.060;2023-05-13T13:27:35;101181.88;;;23.47;32.92
61757;BME280;57225;61.460;24.060;2023-05-13T13:30:20;101189.50;;;23.50;33.40
61757;BME280;57225;61.460;24.060;2023-05-13T13:33:04;101170.00;;;23.18;34.07
61757;BME280;57225;61.460;24.060;2023-05-13T13:35:49;101167.59;;;24.18;33.36
61757;BME280;57225;61.460;24.060;2023-05-13T13:38:34;101157.19;;;24.24;31.52
61757;BME280;57225;61.460;24.060;2023-05-13T13:41:18;101161.59;;;25.26;32.41
61757;BME280;57225;61.460;24.060;2023-05-13T13:44:04;101161.19;;;25.51;30.42
61757;BME280;57225;61.460;24.060;2023-05-13T13:46:48;101173.38;;;25.00;30.76
61757;BME280;57225;61.460;24.060;2023-05-13T13:49:33;101167.38;;;25.49;30.61
61757;BME280;57225;61.460;24.060;2023-05-13T13:52:17;101162.75;;;25.61;30.00
61757;BME280;57225;61.460;24.060;2023-05-13T13:55:02;101162.06;;;25.75;30.21
61757;BME280;57225;61.460;24.060;2023-05-13T13:57:47;101159.66;;;26.07;30.67
61757;BME280;57225;61.460;24.060;2023-05-13T14:00:32;101171.50;;;26.23;31.25
61757;BME280;57225;61.460;24.060;2023-05-13T14:03:16;101167.09;;;26.13;29.12
61757;BME280;57225;61.460;24.060;2023-05-13T14:06:00;101173.41;;;25.93;29.66
61757;BME280;57225;61.460;24.060;2023-05-13T14:08:45;101161.72;;;25.31;30.23
61757;BME280;57225;61.460;24.060;2023-05-13T14:11:29;101164.16;;;25.14;29.69
61757;BME280;57225;61.460;24.060;2023-05-13T14:14:14;101153.09;;;24.43;31.22
61757;BME280;57225;61.460;24.060;2023-05-13T14:16:58;101134.97;;;24.01;31.98
61757;BME280;57225;61.460;24.060;2023-05-13T14:19:45;101148.78;;;23.41;33.18
61757;BME280;57225;61.460;24.060;2023-05-13T14:22:29;101157.81;;;23.70;32.31
61757;BME280;57225;61.460;24.060;2023-05-13T14:25:15;101159.34;;;24.02;33.30
61757;BME280;57225;61.460;24.060;2023-05-13T14:27:59;101146.34;;;24.10;34.17